Time;durP1;ratioP1;P1;durP2;ratioP2;P2;SDS_P1;SDS_P2;PMS_P1;PMS_P2;Temp;Humidity;BMP_temperature;BMP_pressure;BME280_temperature;BME280_humidity;BME280_pressure;Samples;Min_cycle;Max_cycle;Signal;HPM_P1;HPM_P2
2023/07/21 00:01:01;;;;;;;4.38;2.30;;;;;;;;;;6215706;23;20270;-54
2023/07/21 00:03:28;;;;;;;4.82;2.00;;;;;;;;;;6215231;23;20021;-56
2023/07/21 00:05:55;;;;;;;4.30;2.47;;;;;;;;;;6215101;23;20028;-56
2023/07/21 00:08:24;;;;;;;6.18;2.45;;;;;;;;;;6214573;23;20017;-52
2023/07/21 00:10:51;;;;;;;4.30;2.10;;;;;;;;;;6214162;23;20060;-55
2023/07/21 00:13:17;;;;;;;5.72;2.58;;;;;;;;;;6214270;23;20080;-51
2023/07/21 00:15:48;;;;;;;6.47;2.30;;;;;;;;;;6214447;23;20070;-54
2023/07/21 00:18:15;;;;;;;5.68;2.60;;;;;;;;;;6214952;23;20367;-57
2023/07/21 00:20:42;;;;;;;5.43;2.17;;;;;;;;;;6215126;23;20017;-55
2023/07/21 00:23:09;;;;;;;4.85;2.22;;;;;;;;;;6214520;23;20024;-53
2023/07/21 00:25:35;;;;;;;4.20;2.47;;;;;;;;;;6214354;23;20056;-53
2023/07/21 00:28:02;;;;;;;4.47;2.60;;;;;;;;;;6215117;23;20056;-54
2023/07/21 00:30:29;;;;;;;5.07;2.30;;;;;;;;;;6215085;23;20046;-54
2023/07/21 00:32:57;;;;;;;4.28;2.40;;;;;;;;;;6213839;23;20067;-54
2023/07/21 00:35:24;;;;;;;5.32;2.80;;;;;;;;;;6214141;23;20021;-54
2023/07/21 00:37:51;;;;;;;4.07;2.30;;;;;;;;;;6214481;23;20017;-54
2023/07/21 00:40:19;;;;;;;6.47;2.50;;;;;;;;;;6214278;23;20031;-55
2023/07/21 00:42:46;;;;;;;6.70;2.80;;;;;;;;;;6214170;23;20020;-57
2023/07/21 00:45:14;;;;;;;5.47;2.60;;;;;;;;;;6213778;23;20100;-57
2023/07/21 00:47:41;;;;;;;4.97;2.22;;;;;;;;;;6214252;23;20020;-57
2023/07/21 00:50:11;;;;;;;4.45;2.45;;;;;;;;;;6213830;23;20024;-54
2023/07/21 00:52:39;;;;;;;6.25;2.50;;;;;;;;;;6213654;23;20100;-51
2023/07/21 00:55:08;;;;;;;4.30;2.53;;;;;;;;;;6214171;23;20040;-54
2023/07/21 00:57:35;;;;;;;5.37;2.43;;;;;;;;;;6214297;23;20021;-53
2023/07/21 01:00:06;;;;;;;5.53;2.40;;;;;;;;;;6214219;23;20800;-54
2023/07/21 01:02:33;;;;;;;4.15;2.25;;;;;;;;;;6214036;23;20031;-53
2023/07/21 01:05:01;;;;;;;5.97;2.55;;;;;;;;;;6213983;23;20059;-57
2023/07/21 01:07:30;;;;;;;5.85;2.60;;;;;;;;;;6214225;23;20025;-54
2023/07/21 01:09:58;;;;;;;7.57;2.78;;;;;;;;;;6214177;23;20337;-54
2023/07/21 01:12:25;;;;;;;6.32;2.78;;;;;;;;;;6213653;23;20027;-55
2023/07/21 01:14:52;;;;;;;5.57;2.50;;;;;;;;;;6214182;23;20027;-53
2023/07/21 01:17:20;;;;;;;4.45;2.40;;;;;;;;;;6213595;23;20048;-54
2023/07/21 01:19:49;;;;;;;4.78;2.70;;;;;;;;;;6213775;23;20021;-54
2023/07/21 01:22:21;;;;;;;4.53;2.45;;;;;;;;;;6213448;23;20456;-52
2023/07/21 01:25:04;;;;;;;5.85;2.35;;;;;;;;;;6213659;23;20023;-55
2023/07/21 01:30:25;;;;;;;5.43;2.60;;;;;;;;;;6107749;23;20036;-75
2023/07/21 01:32:52;;;;;;;5.53;2.20;;;;;;;;;;6116026;23;20101;-77
2023/07/21 01:35:19;;;;;;;6.13;2.90;;;;;;;;;;6124256;23;20025;-77
2023/07/21 01:37:49;;;;;;;5.45;2.97;;;;;;;;;;6123825;23;20604;-78
2023/07/21 01:40:18;;;;;;;5.00;2.58;;;;;;;;;;6123681;23;20080;-77
2023/07/21 01:42:47;;;;;;;4.95;2.45;;;;;;;;;;6123194;23;20080;-76
2023/07/21 01:45:15;;;;;;;5.68;3.03;;;;;;;;;;6124416;23;20033;-75
2023/07/21 01:47:45;;;;;;;4.90;2.42;;;;;;;;;;6123791;23;20023;-74
2023/07/21 01:50:15;;;;;;;4.93;3.13;;;;;;;;;;6123557;23;20467;-74
2023/07/21 01:52:44;;;;;;;5.03;2.93;;;;;;;;;;6124453;23;20040;-75
2023/07/21 01:55:16;;;;;;;4.60;2.50;;;;;;;;;;6124087;23;20028;-75
2023/07/21 01:57:47;;;;;;;5.78;3.00;;;;;;;;;;6123930;23;20022;-75
2023/07/21 02:00:15;;;;;;;4.90;3.33;;;;;;;;;;6123265;23;20032;-76
2023/07/21 02:02:44;;;;;;;5.22;2.78;;;;;;;;;;6123410;23;20093;-76
2023/07/21 02:05:18;;;;;;;8.80;3.38;;;;;;;;;;6123562;23;20574;-76
2023/07/21 02:07:45;;;;;;;6.00;3.20;;;;;;;;;;6124497;23;20026;-76
2023/07/21 02:10:12;;;;;;;5.90;2.97;;;;;;;;;;6123507;23;20025;-76
2023/07/21 02:12:39;;;;;;;4.60;3.00;;;;;;;;;;6124293;23;20022;-76
2023/07/21 02:15:08;;;;;;;4.90;2.92;;;;;;;;;;6124076;23;20017;-76
2023/07/21 02:17:35;;;;;;;6.35;3.15;;;;;;;;;;6123838;23;20026;-76
2023/07/21 02:20:03;;;;;;;6.30;4.00;;;;;;;;;;6123566;23;20358;-76
2023/07/21 02:22:30;;;;;;;7.03;3.20;;;;;;;;;;6124214;23;20473;-74
2023/07/21 02:24:56;;;;;;;4.95;2.78;;;;;;;;;;6123230;23;20331;-78
2023/07/21 02:27:23;;;;;;;5.63;3.15;;;;;;;;;;6123811;23;20022;-76
2023/07/21 02:29:50;;;;;;;8.15;3.42;;;;;;;;;;6123590;23;20046;-76
2023/07/21 02:32:18;;;;;;;5.72;3.08;;;;;;;;;;6124147;23;20030;-76
2023/07/21 02:34:45;;;;;;;6.35;3.25;;;;;;;;;;6125536;23;20049;-75
2023/07/21 02:37:11;;;;;;;5.45;3.35;;;;;;;;;;6125280;23;20053;-76
2023/07/21 02:39:38;;;;;;;6.40;3.55;;;;;;;;;;6124517;23;20102;-76
2023/07/21 02:42:05;;;;;;;8.77;3.80;;;;;;;;;;6125028;23;20068;-75
2023/07/21 02:44:32;;;;;;;6.45;3.50;;;;;;;;;;6125118;23;20100;-76
2023/07/21 02:46:59;;;;;;;6.40;3.30;;;;;;;;;;6125550;23;20057;-75
2023/07/21 02:49:27;;;;;;;6.45;3.35;;;;;;;;;;6124450;23;20097;-75
2023/07/21 02:51:53;;;;;;;5.40;3.20;;;;;;;;;;6125993;23;20097;-76
2023/07/21 02:54:20;;;;;;;5.85;3.40;;;;;;;;;;6125457;23;20041;-78
2023/07/21 02:56:47;;;;;;;6.13;3.35;;;;;;;;;;6125228;23;20358;-76
2023/07/21 02:59:14;;;;;;;5.75;3.63;;;;;;;;;;6125920;23;20418;-74
2023/07/21 03:01:40;;;;;;;5.88;3.30;;;;;;;;;;6128963;23;20049;-75
2023/07/21 03:04:07;;;;;;;5.60;3.15;;;;;;;;;;6137344;23;20080;-75
2023/07/21 03:06:35;;;;;;;7.30;3.20;;;;;;;;;;6129480;23;20450;-76
2023/07/21 03:09:03;;;;;;;4.50;3.20;;;;;;;;;;6129011;23;20025;-75
2023/07/21 03:11:30;;;;;;;7.05;3.28;;;;;;;;;;6130031;23;20076;-74
2023/07/21 03:13:57;;;;;;;7.82;3.50;;;;;;;;;;6130911;23;20029;-76
2023/07/21 03:16:23;;;;;;;4.45;2.97;;;;;;;;;;6125068;23;20052;-75
2023/07/21 03:18:50;;;;;;;7.35;3.38;;;;;;;;;;6124606;23;20466;-75
2023/07/21 03:21:17;;;;;;;6.50;3.28;;;;;;;;;;6124950;23;20055;-75
2023/07/21 03:23:45;;;;;;;7.40;3.63;;;;;;;;;;6125477;23;20018;-76
2023/07/21 03:26:12;;;;;;;7.43;3.78;;;;;;;;;;6125300;23;20378;-76
2023/07/21 03:28:38;;;;;;;6.85;3.28;;;;;;;;;;6124259;23;20018;-75
2023/07/21 03:31:05;;;;;;;5.75;3.58;;;;;;;;;;6125462;23;20046;-76
2023/07/21 03:33:32;;;;;;;5.60;3.45;;;;;;;;;;6125527;23;20092;-77
2023/07/21 03:36:00;;;;;;;6.60;3.00;;;;;;;;;;6125144;23;20053;-75
2023/07/21 03:38:28;;;;;;;7.80;3.53;;;;;;;;;;6123779;23;20489;-75
2023/07/21 03:41:04;;;;;;;6.20;3.25;;;;;;;;;;6125331;23;20018;-73
2023/07/21 03:43:31;;;;;;;5.63;3.83;;;;;;;;;;6124933;23;20022;-74
2023/07/21 03:45:58;;;;;;;6.32;3.22;;;;;;;;;;6125416;23;20029;-74
2023/07/21 03:48:25;;;;;;;7.45;3.63;;;;;;;;;;6124097;23;20097;-75
2023/07/21 03:50:56;;;;;;;6.05;3.33;;;;;;;;;;6124146;23;20089;-75
2023/07/21 03:53:22;;;;;;;7.20;3.17;;;;;;;;;;6124688;23;20018;-77
2023/07/21 03:55:49;;;;;;;6.57;3.78;;;;;;;;;;6124733;23;20024;-73
2023/07/21 03:58:17;;;;;;;5.97;3.33;;;;;;;;;;6124066;23;20048;-74
2023/07/21 04:00:44;;;;;;;7.97;4.10;;;;;;;;;;6124839;23;20018;-74
2023/07/21 04:03:11;;;;;;;6.20;3.78;;;;;;;;;;6124499;23;20060;-75
2023/07/21 04:05:38;;;;;;;8.25;3.50;;;;;;;;;;6124002;23;20022;-76
2023/07/21 04:08:05;;;;;;;6.05;3.60;;;;;;;;;;6124489;23;20045;-76
2023/07/21 04:10:32;;;;;;;6.32;3.40;;;;;;;;;;6124076;23;20050;-75
2023/07/21 04:12:59;;;;;;;6.95;4.00;;;;;;;;;;6125245;23;20022;-76
2023/07/21 04:15:28;;;;;;;7.82;4.28;;;;;;;;;;6125179;23;20635;-76
2023/07/21 04:17:54;;;;;;;8.93;4.00;;;;;;;;;;6124655;23;20022;-77
2023/07/21 04:20:22;;;;;;;6.95;4.15;;;;;;;;;;6124473;23;20092;-75
2023/07/21 04:22:49;;;;;;;9.93;4.22;;;;;;;;;;6125345;23;20021;-76
2023/07/21 04:25:17;;;;;;;6.80;4.10;;;;;;;;;;6125147;23;20018;-75
2023/07/21 04:27:45;;;;;;;8.43;4.22;;;;;;;;;;6131475;23;20466;-75
2023/07/21 04:30:13;;;;;;;7.03;4.13;;;;;;;;;;6128267;23;20077;-75
2023/07/21 04:32:41;;;;;;;7.10;4.15;;;;;;;;;;6124768;23;20022;-75
2023/07/21 04:35:09;;;;;;;8.90;4.38;;;;;;;;;;6124478;23;20021;-75
2023/07/21 04:37:36;;;;;;;7.25;4.28;;;;;;;;;;6124371;23;20462;-75
2023/07/21 04:40:05;;;;;;;6.55;4.15;;;;;;;;;;6123471;23;20489;-75
2023/07/21 04:42:32;;;;;;;8.75;4.70;;;;;;;;;;6124479;23;20481;-73
2023/07/21 04:44:59;;;;;;;6.07;4.05;;;;;;;;;;6124745;23;20049;-76
2023/07/21 04:47:25;;;;;;;7.50;4.13;;;;;;;;;;6124321;23;20025;-75
2023/07/21 04:49:53;;;;;;;7.22;4.28;;;;;;;;;;6124211;23;20022;-76
2023/07/21 04:52:21;;;;;;;11.48;4.70;;;;;;;;;;6124398;23;20024;-75
2023/07/21 04:54:47;;;;;;;8.25;4.65;;;;;;;;;;6124005;23;20030;-75
2023/07/21 04:57:14;;;;;;;16.20;4.80;;;;;;;;;;6123739;23;20038;-76
2023/07/21 04:59:42;;;;;;;9.73;4.65;;;;;;;;;;6124139;23;20104;-77
2023/07/21 05:02:09;;;;;;;8.30;4.10;;;;;;;;;;6124727;23;20022;-76
2023/07/21 05:04:35;;;;;;;9.88;3.75;;;;;;;;;;6124605;23;20018;-76
2023/07/21 05:07:04;;;;;;;9.20;4.05;;;;;;;;;;6124349;23;20090;-76
2023/07/21 05:09:31;;;;;;;6.70;3.20;;;;;;;;;;6124413;23;20022;-77
2023/07/21 05:11:58;;;;;;;8.25;4.68;;;;;;;;;;6124741;23;20025;-75
2023/07/21 05:14:24;;;;;;;10.40;3.92;;;;;;;;;;6124468;23;20028;-77
2023/07/21 05:16:51;;;;;;;7.03;4.20;;;;;;;;;;6124782;23;20040;-77
2023/07/21 05:19:17;;;;;;;7.45;3.95;;;;;;;;;;6124553;23;20032;-76
2023/07/21 05:21:45;;;;;;;7.13;3.70;;;;;;;;;;6125097;23;20024;-76
2023/07/21 05:24:13;;;;;;;8.32;3.60;;;;;;;;;;6124059;23;20486;-76
2023/07/21 05:26:40;;;;;;;9.13;3.92;;;;;;;;;;6124600;23;20045;-75
2023/07/21 05:29:06;;;;;;;8.10;3.80;;;;;;;;;;6124018;23;20021;-75
2023/07/21 05:31:33;;;;;;;9.25;4.28;;;;;;;;;;6124757;23;20018;-75
2023/07/21 05:34:00;;;;;;;9.98;4.57;;;;;;;;;;6124624;23;20560;-76
2023/07/21 05:36:27;;;;;;;8.73;4.60;;;;;;;;;;6125003;23;20026;-76
2023/07/21 05:51:36;;;;;;;7.57;4.25;;;;;;;;;;6089835;23;20087;-83
2023/07/21 05:54:03;;;;;;;7.57;3.95;;;;;;;;;;6150209;23;20017;-81
2023/07/21 05:56:30;;;;;;;10.88;4.32;;;;;;;;;;6172907;23;20029;-82
2023/07/21 05:59:06;;;;;;;8.63;4.53;;;;;;;;;;6179828;23;20029;-82
2023/07/21 06:01:33;;;;;;;11.85;4.30;;;;;;;;;;6182054;23;20020;-83
2023/07/21 06:03:59;;;;;;;8.13;4.03;;;;;;;;;;6179395;23;20021;-81
2023/07/21 06:06:26;;;;;;;9.85;4.18;;;;;;;;;;6180695;23;20073;-82
2023/07/21 06:08:56;;;;;;;8.52;4.50;;;;;;;;;;6181780;23;20029;-81
2023/07/21 06:11:23;;;;;;;8.82;4.22;;;;;;;;;;6160316;23;20025;-81
2023/07/21 06:13:50;;;;;;;9.93;4.53;;;;;;;;;;6159308;23;20021;-81
2023/07/21 06:16:16;;;;;;;9.15;4.70;;;;;;;;;;6160826;23;20024;-81
2023/07/21 06:18:43;;;;;;;9.88;4.55;;;;;;;;;;6159683;23;20018;-81
2023/07/21 06:21:16;;;;;;;9.30;4.57;;;;;;;;;;6159083;23;20021;-82
2023/07/21 06:23:43;;;;;;;8.85;4.88;;;;;;;;;;6160057;23;20026;-82
2023/07/21 06:26:11;;;;;;;8.05;4.65;;;;;;;;;;6159699;23;20101;-81
2023/07/21 06:28:37;;;;;;;9.43;4.80;;;;;;;;;;6159683;23;20026;-81
2023/07/21 06:31:04;;;;;;;8.10;5.10;;;;;;;;;;6159091;23;20024;-81
2023/07/21 06:33:30;;;;;;;8.65;5.45;;;;;;;;;;6160365;23;20025;-81
2023/07/21 06:35:57;;;;;;;7.90;5.25;;;;;;;;;;6160924;23;20017;-82
2023/07/21 06:38:24;;;;;;;8.27;5.55;;;;;;;;;;6159768;23;20027;-81
2023/07/21 06:40:51;;;;;;;8.60;4.60;;;;;;;;;;6162926;23;20028;-81
2023/07/21 06:43:19;;;;;;;7.00;4.30;;;;;;;;;;6164577;23;20017;-81
2023/07/21 06:45:46;;;;;;;6.38;4.10;;;;;;;;;;6162435;23;20024;-77
2023/07/21 06:48:12;;;;;;;7.38;4.25;;;;;;;;;;6162281;23;20022;-81
2023/07/21 06:50:39;;;;;;;8.00;4.78;;;;;;;;;;6164846;23;20026;-80
2023/07/21 06:53:06;;;;;;;6.72;4.53;;;;;;;;;;6167370;23;20025;-78
2023/07/21 06:55:32;;;;;;;7.13;4.30;;;;;;;;;;6166939;23;20021;-80
2023/07/21 06:57:59;;;;;;;6.25;4.13;;;;;;;;;;6160369;23;20017;-81
2023/07/21 07:00:27;;;;;;;7.13;4.30;;;;;;;;;;6160187;23;20022;-82
2023/07/21 07:02:56;;;;;;;6.50;4.50;;;;;;;;;;6161362;23;20017;-82
2023/07/21 07:05:23;;;;;;;7.32;4.80;;;;;;;;;;6161223;23;20036;-81
2023/07/21 07:07:52;;;;;;;8.18;4.88;;;;;;;;;;6160316;23;20024;-82
2023/07/21 07:10:19;;;;;;;9.13;5.88;;;;;;;;;;6163248;23;20029;-81
2023/07/21 07:12:48;;;;;;;11.68;4.88;;;;;;;;;;6163102;23;20089;-83
2023/07/21 07:15:14;;;;;;;9.23;4.60;;;;;;;;;;6165539;23;20021;-82
2023/07/21 07:17:43;;;;;;;6.90;4.65;;;;;;;;;;6161770;23;20412;-81
2023/07/21 07:20:12;;;;;;;6.43;4.40;;;;;;;;;;6160621;23;20022;-81
2023/07/21 07:22:58;;;;;;;8.38;4.82;;;;;;;;;;6161902;23;20070;-80
2023/07/21 07:25:25;;;;;;;6.10;4.55;;;;;;;;;;6160934;23;20064;-80
2023/07/21 07:27:52;;;;;;;6.63;4.95;;;;;;;;;;6160247;23;20028;-78
2023/07/21 07:30:20;;;;;;;5.63;4.03;;;;;;;;;;6160447;23;20021;-78
2023/07/21 07:32:48;;;;;;;8.85;4.90;;;;;;;;;;6157413;23;20397;-78
2023/07/21 07:35:16;;;;;;;7.47;4.30;;;;;;;;;;6156608;23;20582;-79
2023/07/21 07:37:43;;;;;;;6.30;4.47;;;;;;;;;;6157441;23;20100;-79
2023/07/21 07:40:11;;;;;;;5.88;4.15;;;;;;;;;;6157562;23;20101;-79
2023/07/21 07:42:41;;;;;;;6.22;4.57;;;;;;;;;;6157857;23;20659;-79
2023/07/21 07:45:08;;;;;;;7.93;4.93;;;;;;;;;;6157349;23;20028;-80
2023/07/21 07:47:35;;;;;;;6.30;4.03;;;;;;;;;;6158271;23;20021;-80
2023/07/21 07:50:06;;;;;;;6.60;3.63;;;;;;;;;;6157498;23;20027;-78
2023/07/21 07:52:32;;;;;;;8.15;4.20;;;;;;;;;;6158667;23;20560;-80
2023/07/21 07:54:59;;;;;;;8.10;4.10;;;;;;;;;;6158623;23;20072;-80
2023/07/21 07:57:27;;;;;;;7.03;4.10;;;;;;;;;;6159351;23;20135;-80
2023/07/21 07:59:53;;;;;;;6.80;4.00;;;;;;;;;;6158007;23;20020;-80
2023/07/21 08:02:21;;;;;;;8.52;4.03;;;;;;;;;;6159589;23;20041;-80
2023/07/21 08:04:48;;;;;;;8.57;3.97;;;;;;;;;;6157973;23;20032;-81
2023/07/21 08:07:16;;;;;;;7.50;3.75;;;;;;;;;;6157737;23;20120;-79
2023/07/21 08:09:43;;;;;;;6.78;4.15;;;;;;;;;;6156561;23;20133;-79
2023/07/21 08:12:09;;;;;;;7.07;4.30;;;;;;;;;;6158267;23;20025;-80
2023/07/21 08:14:36;;;;;;;6.40;3.85;;;;;;;;;;6163541;23;20036;-80
2023/07/21 08:17:03;;;;;;;6.88;3.83;;;;;;;;;;6162697;23;20021;-80
2023/07/21 08:19:31;;;;;;;7.75;3.80;;;;;;;;;;6158636;23;20042;-79
2023/07/21 08:22:04;;;;;;;6.43;3.67;;;;;;;;;;6156939;23;20075;-79
2023/07/21 08:24:32;;;;;;;6.10;3.80;;;;;;;;;;6156610;23;20028;-80
2023/07/21 08:26:59;;;;;;;8.32;4.10;;;;;;;;;;6155679;23;20092;-78
2023/07/21 08:29:26;;;;;;;6.97;3.50;;;;;;;;;;6155237;23;20041;-79
2023/07/21 08:31:53;;;;;;;8.45;3.17;;;;;;;;;;6159305;23;20022;-80
2023/07/21 08:34:20;;;;;;;5.70;3.50;;;;;;;;;;6164600;23;20036;-80
2023/07/21 08:36:46;;;;;;;5.78;3.53;;;;;;;;;;6164950;23;20080;-81
2023/07/21 08:39:13;;;;;;;5.82;3.58;;;;;;;;;;6167463;23;20056;-80
2023/07/21 08:41:46;;;;;;;6.07;3.42;;;;;;;;;;6167083;23;20026;-79
2023/07/21 08:44:14;;;;;;;6.22;3.28;;;;;;;;;;6169992;23;20021;-80
2023/07/21 08:46:41;;;;;;;6.22;3.70;;;;;;;;;;6170489;23;20025;-79
2023/07/21 08:49:08;;;;;;;6.82;3.75;;;;;;;;;;6171393;23;20032;-80
2023/07/21 08:51:40;;;;;;;8.95;3.92;;;;;;;;;;6171002;23;20044;-79
2023/07/21 08:54:07;;;;;;;7.18;3.67;;;;;;;;;;6164344;23;20026;-78
2023/07/21 08:56:34;;;;;;;6.00;3.72;;;;;;;;;;6161722;23;20021;-78
2023/07/21 08:59:02;;;;;;;7.53;4.07;;;;;;;;;;6161977;23;20013;-80
2023/07/21 09:01:29;;;;;;;6.18;3.35;;;;;;;;;;6163246;23;20077;-78
2023/07/21 09:03:55;;;;;;;8.32;4.03;;;;;;;;;;6162003;23;20077;-81
2023/07/21 09:06:22;;;;;;;8.02;3.70;;;;;;;;;;6161599;23;20092;-81
2023/07/21 09:08:49;;;;;;;6.88;4.15;;;;;;;;;;6161363;23;20053;-81
2023/07/21 09:11:16;;;;;;;5.95;4.32;;;;;;;;;;6159271;23;20022;-80
2023/07/21 09:13:51;;;;;;;6.03;4.15;;;;;;;;;;6160221;23;20412;-80
2023/07/21 09:16:20;;;;;;;6.38;4.32;;;;;;;;;;6158877;23;20080;-80
2023/07/21 09:18:48;;;;;;;6.00;4.43;;;;;;;;;;6158642;23;20029;-80
2023/07/21 09:21:19;;;;;;;7.28;4.10;;;;;;;;;;6156771;23;20021;-81
2023/07/21 09:23:46;;;;;;;9.18;4.65;;;;;;;;;;6155094;23;20043;-80
2023/07/21 09:26:16;;;;;;;7.03;4.22;;;;;;;;;;6156136;23;20382;-81
2023/07/21 09:28:44;;;;;;;8.35;4.57;;;;;;;;;;6156933;23;20053;-81
2023/07/21 09:31:12;;;;;;;6.35;4.63;;;;;;;;;;6154064;23;20076;-81
2023/07/21 09:33:41;;;;;;;8.63;4.32;;;;;;;;;;6155734;23;20041;-81
2023/07/21 09:36:10;;;;;;;6.75;4.50;;;;;;;;;;6155639;23;20093;-81
2023/07/21 09:38:38;;;;;;;9.45;4.93;;;;;;;;;;6156322;23;20041;-80
2023/07/21 09:41:07;;;;;;;8.90;4.78;;;;;;;;;;6156254;23;20028;-81
2023/07/21 09:43:34;;;;;;;5.68;4.50;;;;;;;;;;6157666;23;20469;-77
2023/07/21 09:46:01;;;;;;;8.35;4.80;;;;;;;;;;6157861;23;20028;-80
2023/07/21 09:48:28;;;;;;;6.20;4.43;;;;;;;;;;6158011;23;20100;-78
2023/07/21 09:50:58;;;;;;;6.68;3.97;;;;;;;;;;6158529;23;20022;-81
2023/07/21 09:53:30;;;;;;;6.63;4.35;;;;;;;;;;6160111;23;20108;-81
2023/07/21 09:55:59;;;;;;;6.55;4.07;;;;;;;;;;6162176;23;20022;-80
2023/07/21 09:58:29;;;;;;;7.85;4.03;;;;;;;;;;6158815;23;20032;-81
2023/07/21 10:01:00;;;;;;;7.47;4.60;;;;;;;;;;6157712;23;20017;-80
2023/07/21 10:03:27;;;;;;;6.22;4.55;;;;;;;;;;6158048;23;20501;-81
2023/07/21 10:05:54;;;;;;;6.78;4.38;;;;;;;;;;6157788;23;20056;-81
2023/07/21 10:08:23;;;;;;;7.43;4.20;;;;;;;;;;6156835;23;20105;-80
2023/07/21 10:10:50;;;;;;;5.68;4.00;;;;;;;;;;6160901;23;20032;-80
2023/07/21 10:13:16;;;;;;;6.22;4.38;;;;;;;;;;6160189;23;20026;-82
2023/07/21 10:15:47;;;;;;;8.13;4.07;;;;;;;;;;6161500;23;20069;-82
2023/07/21 10:18:14;;;;;;;7.82;4.63;;;;;;;;;;6168773;23;20255;-82
2023/07/21 10:20:44;;;;;;;6.25;3.60;;;;;;;;;;6167106;23;20018;-82
2023/07/21 10:23:12;;;;;;;5.80;4.27;;;;;;;;;;6163166;23;20044;-82
2023/07/21 10:25:56;;;;;;;6.38;4.22;;;;;;;;;;6158628;23;20061;-78
2023/07/21 10:28:24;;;;;;;6.45;4.30;;;;;;;;;;6158751;23;20025;-79
2023/07/21 10:30:52;;;;;;;5.68;3.88;;;;;;;;;;6164058;23;20035;-81
2023/07/21 10:33:20;;;;;;;5.63;3.60;;;;;;;;;;6162433;23;20108;-80
2023/07/21 10:35:47;;;;;;;6.63;3.85;;;;;;;;;;6164610;23;20042;-80
2023/07/21 10:38:26;;;;;;;6.30;3.72;;;;;;;;;;6158919;23;20021;-79
2023/07/21 10:40:54;;;;;;;6.40;4.10;;;;;;;;;;6158262;23;20045;-83
2023/07/21 10:43:21;;;;;;;7.53;4.40;;;;;;;;;;6164161;23;20032;-84
2023/07/21 10:45:53;;;;;;;5.55;3.78;;;;;;;;;;6160416;23;20029;-80
2023/07/21 10:48:21;;;;;;;8.30;4.05;;;;;;;;;;6158706;23;20052;-80
2023/07/21 10:50:54;;;;;;;5.45;3.80;;;;;;;;;;6157278;23;20025;-78
2023/07/21 10:53:20;;;;;;;6.53;3.92;;;;;;;;;;6158194;23;20339;-80
2023/07/21 10:55:47;;;;;;;6.85;3.90;;;;;;;;;;6159013;23;20489;-80
2023/07/21 10:58:16;;;;;;;6.10;4.45;;;;;;;;;;6159859;23;20442;-80
2023/07/21 11:00:47;;;;;;;5.25;3.63;;;;;;;;;;6158285;23;20410;-80
2023/07/21 11:03:13;;;;;;;6.57;3.63;;;;;;;;;;6158986;23;20021;-79
2023/07/21 11:05:40;;;;;;;5.97;3.90;;;;;;;;;;6156439;23;20021;-79
2023/07/21 11:08:11;;;;;;;5.65;4.10;;;;;;;;;;6157683;23;20021;-79
2023/07/21 11:10:38;;;;;;;6.15;4.07;;;;;;;;;;6156210;23;20025;-78
2023/07/21 11:13:04;;;;;;;7.15;4.15;;;;;;;;;;6157111;23;20024;-79
2023/07/21 11:15:32;;;;;;;5.55;3.85;;;;;;;;;;6159095;23;20022;-80
2023/07/21 11:18:01;;;;;;;9.27;3.72;;;;;;;;;;6159389;23;20028;-78
2023/07/21 11:20:27;;;;;;;5.25;3.78;;;;;;;;;;6156716;23;20049;-78
2023/07/21 11:22:54;;;;;;;5.00;3.95;;;;;;;;;;6157436;23;20025;-79
2023/07/21 11:25:21;;;;;;;5.50;4.07;;;;;;;;;;6157293;23;20018;-78
2023/07/21 11:27:48;;;;;;;6.72;3.90;;;;;;;;;;6159199;23;20025;-77
2023/07/21 11:30:16;;;;;;;5.95;3.88;;;;;;;;;;6159201;23;20026;-78
2023/07/21 11:32:45;;;;;;;5.82;4.20;;;;;;;;;;6157580;23;20366;-79
2023/07/21 11:35:11;;;;;;;5.88;3.53;;;;;;;;;;6157777;23;20034;-79
2023/07/21 11:37:40;;;;;;;9.57;4.65;;;;;;;;;;6158792;23;20057;-77
2023/07/21 11:40:14;;;;;;;6.30;4.20;;;;;;;;;;6158361;23;20089;-78
2023/07/21 11:42:45;;;;;;;5.55;3.33;;;;;;;;;;6157814;23;20434;-78
2023/07/21 11:45:31;;;;;;;4.63;3.47;;;;;;;;;;6158091;23;20024;-78
2023/07/21 11:47:59;;;;;;;5.63;3.90;;;;;;;;;;6157435;23;20025;-78
2023/07/21 11:50:28;;;;;;;5.82;3.65;;;;;;;;;;6156301;23;20136;-79
2023/07/21 11:52:54;;;;;;;5.15;3.67;;;;;;;;;;6158911;23;20469;-79
2023/07/21 11:55:21;;;;;;;6.57;3.88;;;;;;;;;;6158705;23;20136;-79
2023/07/21 11:57:47;;;;;;;5.35;3.83;;;;;;;;;;6160337;23;20041;-79
2023/07/21 12:00:17;;;;;;;4.95;3.60;;;;;;;;;;6159763;23;20024;-79
2023/07/21 12:02:44;;;;;;;;;;;;;;;;;;6159914;23;20030;-78
2023/07/21 12:05:13;;;;;;;5.20;3.67;;;;;;;;;;6158330;23;20015;-80
2023/07/21 12:07:42;;;;;;;5.13;3.88;;;;;;;;;;6158809;23;20085;-80
2023/07/21 12:10:10;;;;;;;6.47;3.45;;;;;;;;;;6158110;23;20025;-79
2023/07/21 12:12:37;;;;;;;6.13;3.47;;;;;;;;;;6158347;23;20022;-81
2023/07/21 12:15:06;;;;;;;6.05;3.83;;;;;;;;;;6162774;23;20045;-78
2023/07/21 12:17:33;;;;;;;6.22;4.10;;;;;;;;;;6167850;23;20025;-78
2023/07/21 12:19:59;;;;;;;7.13;4.18;;;;;;;;;;6158029;23;20033;-85
2023/07/21 12:22:29;;;;;;;6.55;4.60;;;;;;;;;;6159946;23;20438;-82
2023/07/21 12:24:56;;;;;;;;;;;;;;;;;;6158933;23;20025;-86
2023/07/21 12:27:23;;;;;;;7.55;4.88;;;;;;;;;;6157708;23;19917;-83
2023/07/21 12:29:49;;;;;;;7.65;4.10;;;;;;;;;;6154942;23;20410;-81
2023/07/21 12:34:57;;;;;;;5.72;3.80;;;;;;;;;;6158667;23;20508;-82
2023/07/21 12:37:24;;;;;;;5.72;3.70;;;;;;;;;;6156027;23;20026;-78
2023/07/21 12:39:52;;;;;;;6.18;3.88;;;;;;;;;;6152168;23;20489;-79
2023/07/21 12:42:18;;;;;;;5.43;3.72;;;;;;;;;;6153804;23;20060;-79
2023/07/21 12:44:45;;;;;;;5.97;3.60;;;;;;;;;;6155064;23;20106;-79
2023/07/21 12:47:12;;;;;;;5.18;3.80;;;;;;;;;;6153385;23;20017;-78
2023/07/21 12:49:38;;;;;;;4.75;3.42;;;;;;;;;;6152384;23;20052;-78
2023/07/21 12:52:05;;;;;;;8.50;3.83;;;;;;;;;;6153640;23;20383;-79
2023/07/21 12:54:32;;;;;;;5.97;3.53;;;;;;;;;;6152189;23;20477;-80
2023/07/21 12:57:00;;;;;;;5.90;3.83;;;;;;;;;;6155954;23;20124;-79
2023/07/21 12:59:27;;;;;;;6.65;3.97;;;;;;;;;;6154307;23;20021;-79
2023/07/21 13:01:54;;;;;;;6.07;3.65;;;;;;;;;;6154669;23;20021;-79
2023/07/21 13:04:20;;;;;;;5.40;4.00;;;;;;;;;;6157246;23;20032;-80
2023/07/21 13:06:47;;;;;;;8.48;6.25;;;;;;;;;;6156505;23;20045;-80
2023/07/21 13:09:14;;;;;;;8.98;6.55;;;;;;;;;;6154744;23;20025;-79
2023/07/21 13:11:41;;;;;;;8.85;5.88;;;;;;;;;;6154920;23;20377;-81
2023/07/21 13:14:09;;;;;;;7.13;5.55;;;;;;;;;;6155599;23;20072;-80
2023/07/21 13:16:35;;;;;;;9.85;6.82;;;;;;;;;;6156160;23;20032;-80
2023/07/21 13:19:02;;;;;;;7.55;5.55;;;;;;;;;;6154880;23;20516;-80
2023/07/21 13:21:28;;;;;;;8.07;5.35;;;;;;;;;;6156811;23;20037;-79
2023/07/21 13:23:55;;;;;;;7.53;4.63;;;;;;;;;;6156663;23;20104;-79
2023/07/21 13:26:21;;;;;;;6.80;4.60;;;;;;;;;;6156741;23;20474;-80
2023/07/21 13:28:48;;;;;;;6.97;4.45;;;;;;;;;;6157975;23;20101;-76
2023/07/21 13:31:16;;;;;;;5.95;4.30;;;;;;;;;;6161343;23;20028;-79
2023/07/21 13:33:42;;;;;;;7.45;4.63;;;;;;;;;;6163249;23;20021;-79
2023/07/21 13:36:10;;;;;;;6.43;3.60;;;;;;;;;;6163863;23;20354;-79
2023/07/21 13:38:36;;;;;;;5.82;3.83;;;;;;;;;;6164129;23;20102;-79
2023/07/21 13:41:03;;;;;;;5.68;3.60;;;;;;;;;;6160342;23;20073;-79
2023/07/21 13:43:30;;;;;;;5.45;3.90;;;;;;;;;;6158821;23;20021;-80
2023/07/21 13:45:56;;;;;;;5.22;3.55;;;;;;;;;;6158531;23;20073;-80
2023/07/21 13:48:24;;;;;;;5.28;3.38;;;;;;;;;;6157480;23;20040;-81
2023/07/21 13:50:51;;;;;;;4.97;3.15;;;;;;;;;;6158270;23;20029;-81
2023/07/21 13:53:17;;;;;;;9.55;3.30;;;;;;;;;;6158897;23;20028;-81
2023/07/21 13:55:44;;;;;;;8.30;3.08;;;;;;;;;;6151544;23;20045;-82
2023/07/21 13:58:10;;;;;;;6.80;3.10;;;;;;;;;;6156003;23;20025;-79
2023/07/21 14:00:37;;;;;;;4.93;3.28;;;;;;;;;;6156025;23;20415;-80
2023/07/21 14:03:04;;;;;;;4.40;3.22;;;;;;;;;;6155655;23;20025;-81
2023/07/21 14:05:32;;;;;;;5.38;3.50;;;;;;;;;;6154484;23;20033;-78
2023/07/21 14:07:58;;;;;;;5.53;3.35;;;;;;;;;;6155272;23;20104;-79
2023/07/21 14:10:25;;;;;;;6.05;3.20;;;;;;;;;;6154874;23;20021;-81
2023/07/21 14:12:51;;;;;;;5.57;3.30;;;;;;;;;;6156690;23;20024;-81
2023/07/21 14:15:18;;;;;;;5.35;3.15;;;;;;;;;;6174258;23;20031;-79
2023/07/21 14:17:45;;;;;;;5.15;3.28;;;;;;;;;;6175556;23;20037;-81
2023/07/21 14:20:14;;;;;;;5.43;3.45;;;;;;;;;;6161124;23;20089;-80
2023/07/21 14:22:41;;;;;;;6.28;3.80;;;;;;;;;;6160375;23;20076;-80
2023/07/21 14:25:09;;;;;;;5.18;3.58;;;;;;;;;;6160776;23;20021;-80
2023/07/21 14:27:36;;;;;;;5.22;3.40;;;;;;;;;;6161218;23;20045;-81
2023/07/21 14:30:03;;;;;;;4.97;3.45;;;;;;;;;;6162251;23;20081;-81
2023/07/21 14:32:30;;;;;;;7.25;3.80;;;;;;;;;;6161367;23;20440;-81
2023/07/21 14:34:57;;;;;;;5.75;4.00;;;;;;;;;;6160588;23;20021;-81
2023/07/21 14:37:24;;;;;;;6.05;3.85;;;;;;;;;;6159586;23;20017;-81
2023/07/21 14:39:52;;;;;;;6.32;4.25;;;;;;;;;;6160471;23;20100;-81
2023/07/21 14:42:19;;;;;;;6.55;4.60;;;;;;;;;;6159386;23;20457;-81
2023/07/21 14:44:45;;;;;;;5.30;3.88;;;;;;;;;;6159500;23;20056;-81
2023/07/21 14:47:12;;;;;;;6.10;4.07;;;;;;;;;;6159029;23;20061;-81
2023/07/21 14:49:39;;;;;;;5.63;3.72;;;;;;;;;;6157964;23;20432;-79
2023/07/21 14:52:07;;;;;;;6.43;4.50;;;;;;;;;;6158208;23;20104;-79
2023/07/21 14:54:33;;;;;;;6.40;4.95;;;;;;;;;;6160169;23;20060;-79
2023/07/21 14:57:01;;;;;;;7.57;4.00;;;;;;;;;;6159378;23;20116;-79
2023/07/21 14:59:28;;;;;;;12.27;5.35;;;;;;;;;;6158753;23;20385;-79
2023/07/21 15:01:54;;;;;;;11.40;4.55;;;;;;;;;;6156962;23;20017;-80
2023/07/21 15:04:21;;;;;;;8.82;4.85;;;;;;;;;;6153423;23;20349;-79